Time;durP1;ratioP1;P1;durP2;ratioP2;P2;SDS_P1;SDS_P2;PMS_P1;PMS_P2;Temp;Humidity;BMP_temperature;BMP_pressure;BME280_temperature;BME280_humidity;BME280_pressure;Samples;Min_cycle;Max_cycle;Signal;HPM_P1;HPM_P2
2023/08/05 00:01:52;;;;;;;25.42;12.63;;;;;;;;;;5069719;28;20474;-71
2023/08/05 00:04:18;;;;;;;20.80;13.00;;;;;;;;;;5069357;28;20040;-69
2023/08/05 00:06:44;;;;;;;22.67;13.68;;;;;;;;;;5052241;28;20068;-69
2023/08/05 00:09:10;;;;;;;22.00;13.90;;;;;;;;;;5070189;28;20090;-69
2023/08/05 00:11:36;;;;;;;28.23;14.82;;;;;;;;;;5070317;28;20222;-70
2023/08/05 00:14:02;;;;;;;29.10;16.35;;;;;;;;;;5052619;28;20033;-69
2023/08/05 00:16:28;;;;;;;28.70;15.35;;;;;;;;;;5071642;28;20032;-70
2023/08/05 00:18:54;;;;;;;32.38;17.27;;;;;;;;;;5055517;28;20405;-70
2023/08/05 00:21:20;;;;;;;31.75;17.40;;;;;;;;;;5073982;28;20036;-70
2023/08/05 00:23:47;;;;;;;29.30;16.55;;;;;;;;;;5073730;28;20035;-70
2023/08/05 00:26:13;;;;;;;32.03;17.05;;;;;;;;;;5055811;28;20033;-70
2023/08/05 00:28:39;;;;;;;28.83;16.50;;;;;;;;;;5073537;28;20043;-70
2023/08/05 00:31:09;;;;;;;32.40;17.65;;;;;;;;;;5055529;28;20024;-70
2023/08/05 00:33:35;;;;;;;27.63;16.33;;;;;;;;;;5055302;28;20119;-69
2023/08/05 00:36:01;;;;;;;30.10;18.42;;;;;;;;;;5054907;28;20399;-69
2023/08/05 00:38:27;;;;;;;30.45;16.77;;;;;;;;;;5055413;28;20032;-70
2023/08/05 00:40:53;;;;;;;30.83;16.67;;;;;;;;;;5038911;28;20024;-70
2023/08/05 00:43:19;;;;;;;27.00;15.73;;;;;;;;;;5055701;28;20482;-70
2023/08/05 00:45:45;;;;;;;26.70;15.52;;;;;;;;;;5040719;28;20037;-70
2023/08/05 00:48:12;;;;;;;26.67;16.30;;;;;;;;;;5093432;28;20034;-70
2023/08/05 00:50:39;;;;;;;28.20;16.40;;;;;;;;;;5075465;28;20093;-70
2023/08/05 00:53:06;;;;;;;29.27;16.52;;;;;;;;;;5075854;28;20028;-69
2023/08/05 00:55:32;;;;;;;30.67;16.85;;;;;;;;;;5093591;28;20028;-70
2023/08/05 00:57:58;;;;;;;32.67;16.58;;;;;;;;;;5075108;28;20032;-70
2023/08/05 01:00:24;;;;;;;28.13;17.27;;;;;;;;;;5093045;28;20386;-70
2023/08/05 01:02:51;;;;;;;28.25;16.55;;;;;;;;;;5074780;28;20043;-70
2023/08/05 01:05:17;;;;;;;30.05;16.25;;;;;;;;;;5075078;28;20036;-72
2023/08/05 01:07:44;;;;;;;29.05;16.95;;;;;;;;;;5092918;28;20119;-70
2023/08/05 01:10:11;;;;;;;33.92;14.30;;;;;;;;;;5092982;28;20039;-70
2023/08/05 01:12:37;;;;;;;27.60;15.23;;;;;;;;;;5075312;28;20027;-70
2023/08/05 01:15:03;;;;;;;26.60;14.13;;;;;;;;;;5074974;28;20253;-70
2023/08/05 01:17:29;;;;;;;26.17;14.50;;;;;;;;;;5093538;28;21139;-69
2023/08/05 01:19:56;;;;;;;21.77;14.38;;;;;;;;;;5092848;28;20040;-69
2023/08/05 01:22:42;;;;;;;24.40;13.63;;;;;;;;;;5041673;28;20035;-69
2023/08/05 01:25:35;;;;;;;22.05;13.82;;;;;;;;;;5092888;28;20092;-69
2023/08/05 01:28:02;;;;;;;22.15;14.10;;;;;;;;;;5088316;28;20119;-70
2023/08/05 01:30:29;;;;;;;19.67;13.18;;;;;;;;;;5074602;28;20079;-70
2023/08/05 01:32:58;;;;;;;22.25;13.05;;;;;;;;;;5092937;28;20080;-69
2023/08/05 01:35:24;;;;;;;22.50;13.27;;;;;;;;;;5093221;28;20089;-70
2023/08/05 01:37:50;;;;;;;22.30;13.52;;;;;;;;;;5092818;28;20048;-70
2023/08/05 01:40:17;;;;;;;25.92;13.27;;;;;;;;;;5070825;28;20052;-70
2023/08/05 01:42:43;;;;;;;22.05;13.40;;;;;;;;;;5072672;28;20039;-70
2023/08/05 01:45:09;;;;;;;25.83;14.07;;;;;;;;;;5072800;28;20028;-68
2023/08/05 01:47:35;;;;;;;25.77;13.65;;;;;;;;;;5071185;28;20032;-68
2023/08/05 01:50:01;;;;;;;24.42;14.02;;;;;;;;;;5070862;28;20445;-68
2023/08/05 01:52:27;;;;;;;24.92;13.88;;;;;;;;;;5072374;28;20119;-69
2023/08/05 01:54:54;;;;;;;21.63;12.80;;;;;;;;;;5070632;28;20111;-69
2023/08/05 01:57:20;;;;;;;17.90;12.40;;;;;;;;;;5071936;28;20075;-70
2023/08/05 01:59:46;;;;;;;21.73;13.27;;;;;;;;;;5070425;28;20068;-70
2023/08/05 02:02:12;;;;;;;31.15;14.52;;;;;;;;;;5072126;28;20043;-70
2023/08/05 02:04:38;;;;;;;26.48;13.23;;;;;;;;;;5061187;28;20060;-70
2023/08/05 02:07:05;;;;;;;25.63;14.65;;;;;;;;;;5050856;28;20043;-69
2023/08/05 02:09:31;;;;;;;26.40;14.90;;;;;;;;;;5051700;28;20051;-69
2023/08/05 02:11:58;;;;;;;28.95;15.00;;;;;;;;;;5050837;28;20036;-73
2023/08/05 02:14:24;;;;;;;30.42;15.70;;;;;;;;;;5034375;28;20482;-69
2023/08/05 02:16:50;;;;;;;31.45;16.60;;;;;;;;;;5050933;28;20025;-69
2023/08/05 02:19:17;;;;;;;35.80;17.63;;;;;;;;;;5034154;28;20072;-69
2023/08/05 02:21:44;;;;;;;33.42;16.38;;;;;;;;;;5060954;28;20291;-69
2023/08/05 02:24:10;;;;;;;30.88;17.77;;;;;;;;;;5069189;28;20463;-69
2023/08/05 02:26:39;;;;;;;30.15;17.00;;;;;;;;;;5070219;28;20123;-68
2023/08/05 02:29:05;;;;;;;30.58;16.45;;;;;;;;;;5069599;28;20020;-70
2023/08/05 02:31:33;;;;;;;30.45;15.95;;;;;;;;;;5071422;28;20040;-70
2023/08/05 02:33:59;;;;;;;33.25;17.35;;;;;;;;;;5070093;28;20036;-70
2023/08/05 02:36:25;;;;;;;30.40;16.25;;;;;;;;;;5069811;28;20048;-69
2023/08/05 02:38:51;;;;;;;28.92;16.20;;;;;;;;;;5073413;28;20052;-69
2023/08/05 02:41:17;;;;;;;30.38;16.80;;;;;;;;;;5091074;28;20135;-69
2023/08/05 02:43:43;;;;;;;28.58;17.65;;;;;;;;;;5073413;28;20494;-69
2023/08/05 02:46:11;;;;;;;28.83;16.90;;;;;;;;;;5091801;28;20086;-69
2023/08/05 02:48:37;;;;;;;31.65;17.10;;;;;;;;;;5073139;28;20040;-68
2023/08/05 02:51:03;;;;;;;32.38;17.33;;;;;;;;;;5073227;28;20043;-68
2023/08/05 02:53:29;;;;;;;31.00;18.17;;;;;;;;;;5073269;28;20036;-69
2023/08/05 02:55:55;;;;;;;36.00;18.67;;;;;;;;;;5073511;28;20058;-69
2023/08/05 02:58:21;;;;;;;32.95;17.67;;;;;;;;;;5091670;28;20092;-69
2023/08/05 03:00:47;;;;;;;32.17;17.67;;;;;;;;;;5056061;28;20032;-70
2023/08/05 03:03:16;;;;;;;35.67;18.33;;;;;;;;;;5073017;28;20038;-70
2023/08/05 03:05:42;;;;;;;31.98;16.38;;;;;;;;;;5055934;28;20039;-69
2023/08/05 03:08:10;;;;;;;31.60;17.73;;;;;;;;;;5073019;28;20393;-69
2023/08/05 03:10:36;;;;;;;30.92;17.33;;;;;;;;;;5091064;28;20048;-69
2023/08/05 03:13:02;;;;;;;30.80;17.42;;;;;;;;;;5091434;28;20024;-69
2023/08/05 03:15:29;;;;;;;30.52;16.83;;;;;;;;;;5072728;28;20038;-70
2023/08/05 03:17:58;;;;;;;36.88;17.10;;;;;;;;;;5090905;28;20056;-70
2023/08/05 03:20:25;;;;;;;32.15;17.38;;;;;;;;;;5090525;28;20036;-69
2023/08/05 03:22:55;;;;;;;30.37;16.97;;;;;;;;;;5072949;28;20125;-69
2023/08/05 03:25:22;;;;;;;27.02;16.17;;;;;;;;;;5072950;28;20290;-69
2023/08/05 03:27:52;;;;;;;28.48;15.95;;;;;;;;;;5072891;28;20028;-69
2023/08/05 03:30:20;;;;;;;25.55;15.48;;;;;;;;;;5072628;28;20021;-70
2023/08/05 03:32:48;;;;;;;26.23;15.57;;;;;;;;;;5056101;28;20027;-70
2023/08/05 03:35:16;;;;;;;29.67;16.95;;;;;;;;;;5090712;28;20055;-70
2023/08/05 03:37:42;;;;;;;27.52;15.23;;;;;;;;;;5072170;28;20131;-70
2023/08/05 03:40:08;;;;;;;32.88;16.63;;;;;;;;;;5090007;28;20139;-70
2023/08/05 03:42:34;;;;;;;29.92;15.75;;;;;;;;;;5089849;28;20036;-69
2023/08/05 03:45:00;;;;;;;33.80;16.60;;;;;;;;;;5089979;28;20039;-69
2023/08/05 03:47:27;;;;;;;29.83;16.85;;;;;;;;;;5082423;28;20021;-69
2023/08/05 03:49:53;;;;;;;27.42;16.02;;;;;;;;;;5070226;28;20124;-70
2023/08/05 03:52:19;;;;;;;35.40;17.10;;;;;;;;;;5068949;28;20477;-70
2023/08/05 03:54:45;;;;;;;30.15;16.67;;;;;;;;;;5068693;28;20378;-69
2023/08/05 03:57:11;;;;;;;33.08;17.45;;;;;;;;;;5070068;28;20033;-69
2023/08/05 03:59:40;;;;;;;33.95;17.95;;;;;;;;;;5035270;28;20024;-69
2023/08/05 04:02:07;;;;;;;29.42;17.08;;;;;;;;;;5051642;28;20565;-70
2023/08/05 04:04:33;;;;;;;33.75;17.73;;;;;;;;;;5060568;28;20036;-70
2023/08/05 04:06:59;;;;;;;31.55;18.17;;;;;;;;;;5071830;28;20055;-69
2023/08/05 04:09:25;;;;;;;29.65;17.13;;;;;;;;;;5089893;28;20032;-69
2023/08/05 04:11:53;;;;;;;29.48;17.13;;;;;;;;;;5072175;28;20389;-69
2023/08/05 04:14:20;;;;;;;36.22;17.83;;;;;;;;;;5071728;28;20473;-69
2023/08/05 04:16:51;;;;;;;37.08;18.88;;;;;;;;;;5071848;28;20032;-69
2023/08/05 04:19:19;;;;;;;36.05;19.15;;;;;;;;;;5072059;28;20032;-71
2023/08/05 04:21:48;;;;;;;32.92;17.90;;;;;;;;;;5071844;28;20087;-69
2023/08/05 04:24:16;;;;;;;40.78;19.63;;;;;;;;;;5054599;28;20405;-69
2023/08/05 04:26:42;;;;;;;41.72;20.60;;;;;;;;;;5071774;28;20016;-70
2023/08/05 04:29:09;;;;;;;35.25;20.27;;;;;;;;;;5090109;28;20032;-70
2023/08/05 04:31:38;;;;;;;37.78;20.90;;;;;;;;;;5089531;28;20032;-70
2023/08/05 04:34:04;;;;;;;44.03;22.88;;;;;;;;;;5090000;28;20028;-70
2023/08/05 04:36:30;;;;;;;43.13;23.40;;;;;;;;;;5089620;28;20032;-69
2023/08/05 04:39:02;;;;;;;46.35;22.23;;;;;;;;;;5089766;28;20036;-69
2023/08/05 04:41:29;;;;;;;40.83;22.08;;;;;;;;;;5089215;28;20035;-69
2023/08/05 04:43:56;;;;;;;40.85;22.17;;;;;;;;;;5089683;28;20028;-70
2023/08/05 04:46:22;;;;;;;45.78;23.05;;;;;;;;;;5089905;28;20039;-69
2023/08/05 04:48:48;;;;;;;44.35;23.88;;;;;;;;;;5072112;28;20036;-69
2023/08/05 04:51:14;;;;;;;47.67;24.00;;;;;;;;;;5089971;28;20394;-69
2023/08/05 04:53:41;;;;;;;50.50;25.50;;;;;;;;;;5071885;28;20072;-70
2023/08/05 04:56:07;;;;;;;44.08;24.83;;;;;;;;;;5089412;28;20112;-69
2023/08/05 04:58:33;;;;;;;48.67;24.15;;;;;;;;;;5089655;28;20040;-70
2023/08/05 05:01:00;;;;;;;40.38;22.63;;;;;;;;;;5089772;28;20032;-70
2023/08/05 05:03:26;;;;;;;45.65;24.02;;;;;;;;;;5074238;28;20043;-69
2023/08/05 05:05:52;;;;;;;46.22;24.08;;;;;;;;;;5072132;28;20029;-69
2023/08/05 05:08:18;;;;;;;41.97;23.23;;;;;;;;;;5084585;28;20044;-69
2023/08/05 05:10:45;;;;;;;43.85;21.65;;;;;;;;;;5074647;28;20131;-70
2023/08/05 05:13:11;;;;;;;48.45;24.17;;;;;;;;;;5092970;28;20104;-70
2023/08/05 05:15:38;;;;;;;45.10;22.35;;;;;;;;;;5092837;28;20081;-70
2023/08/05 05:18:04;;;;;;;44.47;22.60;;;;;;;;;;5092781;28;20118;-70
2023/08/05 05:20:30;;;;;;;44.50;23.35;;;;;;;;;;5092482;28;20130;-70
2023/08/05 05:22:56;;;;;;;50.50;24.05;;;;;;;;;;5092684;28;20048;-70
2023/08/05 05:25:22;;;;;;;41.38;23.40;;;;;;;;;;5074315;28;20036;-70
2023/08/05 05:27:48;;;;;;;42.92;23.75;;;;;;;;;;5074915;28;20036;-72
2023/08/05 05:30:15;;;;;;;39.05;22.77;;;;;;;;;;5074608;28;20097;-70
2023/08/05 05:32:41;;;;;;;41.20;23.60;;;;;;;;;;5092964;28;20074;-70
2023/08/05 05:35:07;;;;;;;45.15;24.55;;;;;;;;;;5074803;28;20028;-70
2023/08/05 05:37:33;;;;;;;43.28;23.35;;;;;;;;;;5092685;28;20058;-70
2023/08/05 05:40:00;;;;;;;42.00;22.45;;;;;;;;;;5092116;28;20052;-70
2023/08/05 05:42:26;;;;;;;41.45;24.30;;;;;;;;;;5092750;28;20043;-70
2023/08/05 05:44:53;;;;;;;42.63;22.73;;;;;;;;;;5092557;28;20028;-70
2023/08/05 05:47:19;;;;;;;40.53;23.35;;;;;;;;;;5074227;28;20111;-69
2023/08/05 05:49:46;;;;;;;44.55;23.50;;;;;;;;;;5074379;28;20107;-69
2023/08/05 05:52:15;;;;;;;40.10;22.27;;;;;;;;;;5074385;28;20052;-68
2023/08/05 05:54:41;;;;;;;37.63;22.15;;;;;;;;;;5092182;28;20041;-70
2023/08/05 05:57:09;;;;;;;51.05;24.10;;;;;;;;;;5092387;28;20131;-69
2023/08/05 05:59:35;;;;;;;39.10;22.05;;;;;;;;;;5092178;28;20035;-70
2023/08/05 06:02:01;;;;;;;40.05;22.40;;;;;;;;;;5092071;28;20036;-69
2023/08/05 06:04:28;;;;;;;43.22;22.02;;;;;;;;;;5092199;28;20028;-70
2023/08/05 06:06:54;;;;;;;39.13;22.27;;;;;;;;;;5091802;28;20180;-70
2023/08/05 06:09:21;;;;;;;34.03;21.15;;;;;;;;;;5073925;28;20113;-70
2023/08/05 06:11:47;;;;;;;33.78;21.38;;;;;;;;;;5073835;28;20012;-69
2023/08/05 06:14:13;;;;;;;35.10;20.75;;;;;;;;;;5091107;28;20036;-69
2023/08/05 06:16:40;;;;;;;34.00;20.77;;;;;;;;;;5092096;28;20036;-69
2023/08/05 06:19:06;;;;;;;33.60;18.77;;;;;;;;;;5091735;28;20097;-69
2023/08/05 06:21:32;;;;;;;31.88;18.90;;;;;;;;;;5091668;28;20161;-70
2023/08/05 06:23:59;;;;;;;29.70;17.38;;;;;;;;;;5073154;28;20028;-70
2023/08/05 06:26:26;;;;;;;27.80;17.40;;;;;;;;;;5091467;28;20043;-70
2023/08/05 06:28:52;;;;;;;28.42;16.00;;;;;;;;;;5091541;28;20387;-68
2023/08/05 06:31:18;;;;;;;24.08;15.40;;;;;;;;;;5091670;28;20017;-68
2023/08/05 06:33:44;;;;;;;27.00;16.17;;;;;;;;;;5091912;28;20131;-70
2023/08/05 06:36:11;;;;;;;31.15;15.45;;;;;;;;;;5073444;28;20105;-70
2023/08/05 06:38:37;;;;;;;25.42;14.57;;;;;;;;;;5091724;28;20036;-69
2023/08/05 06:41:03;;;;;;;25.52;14.35;;;;;;;;;;5091236;28;20052;-70
2023/08/05 06:43:29;;;;;;;24.83;13.35;;;;;;;;;;5073598;28;20076;-70
2023/08/05 06:45:55;;;;;;;25.23;13.13;;;;;;;;;;5091320;28;20097;-69
2023/08/05 06:48:23;;;;;;;21.63;12.93;;;;;;;;;;5091653;28;20166;-69
2023/08/05 06:50:49;;;;;;;17.60;12.45;;;;;;;;;;5056179;28;20028;-70
2023/08/05 06:53:15;;;;;;;18.02;11.75;;;;;;;;;;5073272;28;20020;-69
2023/08/05 06:55:41;;;;;;;16.88;11.00;;;;;;;;;;5091023;28;20024;-68
2023/08/05 06:58:08;;;;;;;19.73;11.73;;;;;;;;;;5091299;28;20101;-69
2023/08/05 07:00:34;;;;;;;22.75;11.63;;;;;;;;;;5072893;28;20041;-69
2023/08/05 07:03:01;;;;;;;19.83;10.88;;;;;;;;;;5091447;28;20102;-69
2023/08/05 07:05:29;;;;;;;14.18;9.20;;;;;;;;;;5074274;28;20111;-70
2023/08/05 07:07:55;;;;;;;13.07;8.20;;;;;;;;;;5053474;28;20033;-70
2023/08/05 07:10:21;;;;;;;15.30;8.13;;;;;;;;;;5071248;28;20111;-69
2023/08/05 07:12:47;;;;;;;15.85;8.73;;;;;;;;;;5036360;28;20438;-69
2023/08/05 07:15:13;;;;;;;10.88;6.50;;;;;;;;;;5053361;28;20063;-69
2023/08/05 07:17:40;;;;;;;12.15;6.45;;;;;;;;;;5070946;28;20401;-69
2023/08/05 07:20:08;;;;;;;8.35;6.00;;;;;;;;;;5070543;28;20098;-69
2023/08/05 07:22:35;;;;;;;9.02;6.22;;;;;;;;;;5052305;28;20056;-70
2023/08/05 07:25:01;;;;;;;10.43;6.82;;;;;;;;;;5070234;28;20086;-70
2023/08/05 07:27:28;;;;;;;12.82;6.90;;;;;;;;;;5052619;28;20168;-69
2023/08/05 07:29:54;;;;;;;8.73;7.10;;;;;;;;;;5070588;28;20119;-69
2023/08/05 07:32:20;;;;;;;8.70;6.03;;;;;;;;;;5070342;28;20042;-74
2023/08/05 07:34:47;;;;;;;9.43;6.07;;;;;;;;;;5070174;28;20045;-72
2023/08/05 07:37:14;;;;;;;9.95;6.70;;;;;;;;;;5069992;28;20400;-70
2023/08/05 07:39:46;;;;;;;8.60;6.20;;;;;;;;;;5052419;28;20094;-69
2023/08/05 07:42:14;;;;;;;8.82;5.88;;;;;;;;;;5052436;28;20036;-69
2023/08/05 07:44:42;;;;;;;12.18;5.90;;;;;;;;;;5070207;28;20033;-68
2023/08/05 07:47:09;;;;;;;8.52;6.07;;;;;;;;;;5069450;28;20043;-70
2023/08/05 07:49:37;;;;;;;13.38;7.40;;;;;;;;;;5052546;28;20145;-70
2023/08/05 07:52:04;;;;;;;9.30;7.55;;;;;;;;;;5052067;28;20102;-70
2023/08/05 07:54:30;;;;;;;12.40;9.02;;;;;;;;;;5070330;28;20059;-69
2023/08/05 07:56:58;;;;;;;16.67;10.25;;;;;;;;;;5070077;28;20036;-70
2023/08/05 07:59:26;;;;;;;15.50;10.40;;;;;;;;;;5035651;28;20127;-70
2023/08/05 08:01:54;;;;;;;15.20;11.05;;;;;;;;;;5052056;28;20037;-69
2023/08/05 08:04:20;;;;;;;13.20;10.68;;;;;;;;;;5052809;28;20037;-70
2023/08/05 08:06:47;;;;;;;17.02;11.38;;;;;;;;;;5069902;28;20044;-70
2023/08/05 08:09:13;;;;;;;13.73;10.70;;;;;;;;;;5052802;28;20149;-70
2023/08/05 08:11:40;;;;;;;11.98;10.15;;;;;;;;;;5070266;28;20304;-71
2023/08/05 08:14:07;;;;;;;11.82;8.48;;;;;;;;;;5070300;28;20048;-70
2023/08/05 08:16:33;;;;;;;14.38;8.30;;;;;;;;;;5052587;28;20036;-70
2023/08/05 08:18:59;;;;;;;14.18;7.78;;;;;;;;;;5070393;28;20024;-69
2023/08/05 08:21:25;;;;;;;7.95;6.45;;;;;;;;;;5077090;28;20059;-69
2023/08/05 08:23:51;;;;;;;8.45;5.97;;;;;;;;;;5072583;28;20028;-69
2023/08/05 08:26:18;;;;;;;9.65;5.95;;;;;;;;;;5090314;28;20047;-69
2023/08/05 08:28:44;;;;;;;9.00;5.85;;;;;;;;;;5090050;28;20088;-68
2023/08/05 08:31:10;;;;;;;12.70;5.60;;;;;;;;;;5090426;28;20133;-70
2023/08/05 08:33:36;;;;;;;9.27;5.65;;;;;;;;;;5090010;28;20107;-69
2023/08/05 08:36:02;;;;;;;11.50;5.60;;;;;;;;;;5090073;28;20036;-69
2023/08/05 08:38:28;;;;;;;9.90;5.53;;;;;;;;;;5075175;28;20090;-69
2023/08/05 08:41:03;;;;;;;11.95;5.38;;;;;;;;;;5093980;28;20044;-71
2023/08/05 08:43:30;;;;;;;7.03;5.30;;;;;;;;;;5075176;28;20448;-72
2023/08/05 08:45:57;;;;;;;9.85;6.20;;;;;;;;;;5093806;28;20036;-70
2023/08/05 08:48:24;;;;;;;8.98;6.30;;;;;;;;;;5094051;28;20097;-70
2023/08/05 08:50:51;;;;;;;6.93;5.60;;;;;;;;;;5093655;28;20706;-70
2023/08/05 08:53:19;;;;;;;7.53;5.43;;;;;;;;;;5093298;28;20016;-70
2023/08/05 08:55:47;;;;;;;9.68;5.40;;;;;;;;;;5093691;28;20497;-70
2023/08/05 08:58:13;;;;;;;7.50;5.80;;;;;;;;;;5093636;28;20031;-70
2023/08/05 09:00:39;;;;;;;7.30;4.88;;;;;;;;;;5093555;28;20039;-70
2023/08/05 09:03:06;;;;;;;9.55;5.00;;;;;;;;;;5093395;28;20028;-71
2023/08/05 09:05:36;;;;;;;6.40;4.22;;;;;;;;;;5075204;28;20027;-71
2023/08/05 09:08:03;;;;;;;7.60;4.18;;;;;;;;;;5093389;28;20073;-70
2023/08/05 09:10:29;;;;;;;6.20;4.32;;;;;;;;;;5093231;28;20103;-70
2023/08/05 09:12:57;;;;;;;6.47;4.22;;;;;;;;;;5093141;28;20032;-70
2023/08/05 09:15:32;;;;;;;8.90;4.82;;;;;;;;;;5075789;28;20043;-70
2023/08/05 09:17:58;;;;;;;9.88;5.28;;;;;;;;;;5075071;28;20028;-69
2023/08/05 09:20:24;;;;;;;9.25;5.00;;;;;;;;;;5074948;28;20061;-70
2023/08/05 09:22:57;;;;;;;7.90;5.13;;;;;;;;;;5093115;28;20044;-69
2023/08/05 09:25:24;;;;;;;7.95;5.70;;;;;;;;;;5093165;28;20051;-70
2023/08/05 09:27:53;;;;;;;15.88;5.82;;;;;;;;;;5093429;28;20501;-69
2023/08/05 09:30:23;;;;;;;9.65;5.82;;;;;;;;;;5093098;28;20070;-70
2023/08/05 09:32:49;;;;;;;7.25;4.28;;;;;;;;;;5074829;28;20032;-69
2023/08/05 09:35:16;;;;;;;5.72;4.40;;;;;;;;;;5093012;28;20036;-69
2023/08/05 09:37:48;;;;;;;7.55;4.53;;;;;;;;;;5092695;28;20028;-69
2023/08/05 09:40:39;;;;;;;7.03;4.68;;;;;;;;;;5092983;28;20060;-69
2023/08/05 09:43:07;;;;;;;9.30;5.53;;;;;;;;;;5074733;28;20144;-69
2023/08/05 09:45:34;;;;;;;9.15;4.78;;;;;;;;;;5093147;28;20075;-68
2023/08/05 09:48:04;;;;;;;7.50;5.03;;;;;;;;;;5092640;28;20048;-69
2023/08/05 09:50:31;;;;;;;7.63;5.78;;;;;;;;;;5092866;28;20115;-69
2023/08/05 09:53:01;;;;;;;9.45;5.00;;;;;;;;;;5092581;28;20038;-69
2023/08/05 09:55:28;;;;;;;7.90;5.15;;;;;;;;;;5092840;28;20456;-69
2023/08/05 09:57:55;;;;;;;9.43;5.80;;;;;;;;;;5092764;28;20031;-69
2023/08/05 10:00:21;;;;;;;9.50;5.88;;;;;;;;;;5057765;28;20512;-70
2023/08/05 10:02:48;;;;;;;8.23;5.57;;;;;;;;;;5092337;28;20063;-70
2023/08/05 10:05:14;;;;;;;10.32;6.18;;;;;;;;;;5074152;28;20035;-70
2023/08/05 10:07:41;;;;;;;7.72;5.53;;;;;;;;;;5092124;28;20024;-70
2023/08/05 10:10:08;;;;;;;11.63;6.30;;;;;;;;;;5091999;28;20088;-69
2023/08/05 10:12:40;;;;;;;10.50;6.18;;;;;;;;;;5092080;28;20127;-70
2023/08/05 10:15:08;;;;;;;13.50;6.38;;;;;;;;;;5073717;28;20815;-70
2023/08/05 10:17:36;;;;;;;11.45;6.95;;;;;;;;;;5092182;28;20079;-69
2023/08/05 10:20:03;;;;;;;11.65;6.70;;;;;;;;;;5091995;28;20397;-70
2023/08/05 10:22:31;;;;;;;9.88;6.55;;;;;;;;;;5091812;28;20043;-70
2023/08/05 10:24:58;;;;;;;9.30;5.90;;;;;;;;;;5092211;28;20354;-69
2023/08/05 10:27:43;;;;;;;13.70;5.93;;;;;;;;;;5091866;28;20032;-69
2023/08/05 10:30:16;;;;;;;10.65;6.50;;;;;;;;;;5092019;28;20059;-69
2023/08/05 10:32:55;;;;;;;14.20;7.28;;;;;;;;;;5091759;28;20062;-69
2023/08/05 10:35:30;;;;;;;10.80;6.55;;;;;;;;;;5091875;28;20032;-69
2023/08/05 10:38:17;;;;;;;12.32;7.68;;;;;;;;;;5091691;28;20035;-70
2023/08/05 10:40:48;;;;;;;12.35;7.28;;;;;;;;;;5091671;28;20545;-71
2023/08/05 10:43:30;;;;;;;14.88;7.75;;;;;;;;;;5091905;28;20040;-70
2023/08/05 10:45:57;;;;;;;11.63;7.35;;;;;;;;;;5091857;28;20028;-72
2023/08/05 10:48:30;;;;;;;11.05;7.00;;;;;;;;;;5092109;28;20059;-69
2023/08/05 10:50:56;;;;;;;12.80;6.85;;;;;;;;;;5074408;28;20435;-69
2023/08/05 10:53:22;;;;;;;14.55;6.90;;;;;;;;;;5091893;28;20024;-69
2023/08/05 10:55:50;;;;;;;15.63;7.10;;;;;;;;;;5091934;28;20370;-72
2023/08/05 10:58:21;;;;;;;14.93;5.95;;;;;;;;;;5091713;28;20043;-70
2023/08/05 11:00:55;;;;;;;12.10;5.32;;;;;;;;;;5072782;28;20402;-70
2023/08/05 11:03:25;;;;;;;10.63;5.68;;;;;;;;;;5072988;28;20115;-70
2023/08/05 11:05:51;;;;;;;13.57;6.18;;;;;;;;;;5053383;28;20032;-70
2023/08/05 11:08:20;;;;;;;10.88;6.85;;;;;;;;;;5071136;28;20042;-69
2023/08/05 11:10:48;;;;;;;14.80;6.80;;;;;;;;;;5071072;28;20352;-69
2023/08/05 11:13:14;;;;;;;15.18;6.97;;;;;;;;;;5070988;28;20028;-70
2023/08/05 11:15:41;;;;;;;12.20;6.53;;;;;;;;;;5070544;28;20036;-69
2023/08/05 11:18:07;;;;;;;9.93;7.28;;;;;;;;;;5053150;28;20024;-70
2023/08/05 11:20:34;;;;;;;13.38;6.75;;;;;;;;;;5052471;28;20024;-70
2023/08/05 11:23:01;;;;;;;12.85;7.05;;;;;;;;;;5070507;28;20040;-70
2023/08/05 11:25:27;;;;;;;14.45;6.80;;;;;;;;;;5070600;28;20029;-70
2023/08/05 11:27:54;;;;;;;9.13;6.50;;;;;;;;;;5070852;28;20016;-69
2023/08/05 11:30:20;;;;;;;9.07;6.07;;;;;;;;;;5068843;28;20032;-70
2023/08/05 11:32:57;;;;;;;8.90;6.20;;;;;;;;;;5069931;28;20036;-70
2023/08/05 11:35:23;;;;;;;11.80;6.55;;;;;;;;;;5070325;28;20032;-70
2023/08/05 11:37:49;;;;;;;10.57;5.45;;;;;;;;;;5070214;28;20047;-70
2023/08/05 11:40:16;;;;;;;8.43;5.20;;;;;;;;;;5052095;28;20135;-70
2023/08/05 11:42:42;;;;;;;9.73;5.30;;;;;;;;;;5068879;28;20036;-70
2023/08/05 11:45:12;;;;;;;9.00;5.35;;;;;;;;;;5070323;28;20040;-70
2023/08/05 11:47:39;;;;;;;8.93;5.10;;;;;;;;;;5070587;28;20056;-75
2023/08/05 11:50:05;;;;;;;10.57;5.40;;;;;;;;;;5069321;28;20067;-70
2023/08/05 11:52:31;;;;;;;13.52;5.32;;;;;;;;;;5070560;28;20052;-70
2023/08/05 11:54:58;;;;;;;12.25;6.20;;;;;;;;;;5070274;28;20028;-71
2023/08/05 11:57:25;;;;;;;10.35;5.65;;;;;;;;;;5070510;28;20481;-70
2023/08/05 11:59:53;;;;;;;9.23;5.30;;;;;;;;;;5052082;28;20040;-70
2023/08/05 12:02:20;;;;;;;9.98;5.22;;;;;;;;;;5052950;28;20295;-71
2023/08/05 12:04:46;;;;;;;9.88;5.40;;;;;;;;;;5080595;28;20512;-70
2023/08/05 12:07:13;;;;;;;10.82;5.45;;;;;;;;;;5090690;28;20041;-69
2023/08/05 12:09:39;;;;;;;9.63;5.00;;;;;;;;;;5090243;28;20119;-70
2023/08/05 12:12:06;;;;;;;9.23;4.47;;;;;;;;;;5073050;28;20040;-71
2023/08/05 12:14:32;;;;;;;12.82;4.82;;;;;;;;;;5076207;28;20568;-70
2023/08/05 12:16:59;;;;;;;11.38;4.82;;;;;;;;;;5076548;28;20334;-70
2023/08/05 12:19:29;;;;;;;11.23;4.82;;;;;;;;;;5094366;28;20051;-70
2023/08/05 12:21:56;;;;;;;7.88;4.55;;;;;;;;;;5094161;28;20036;-70
2023/08/05 12:24:22;;;;;;;8.85;3.88;;;;;;;;;;5076080;28;20382;-69
2023/08/05 12:26:48;;;;;;;9.02;4.60;;;;;;;;;;5076411;28;20025;-68
2023/08/05 12:29:14;;;;;;;9.77;4.10;;;;;;;;;;5094120;28;20032;-70
2023/08/05 12:31:40;;;;;;;8.15;3.75;;;;;;;;;;5094135;28;20103;-70
2023/08/05 12:34:07;;;;;;;13.13;4.05;;;;;;;;;;5093778;28;20043;-69
2023/08/05 12:36:33;;;;;;;12.15;4.40;;;;;;;;;;5093931;28;20024;-69
2023/08/05 12:39:00;;;;;;;6.43;4.13;;;;;;;;;;5093703;28;20043;-69
2023/08/05 12:41:27;;;;;;;8.40;4.38;;;;;;;;;;5093486;28;20087;-69
2023/08/05 12:43:53;;;;;;;7.95;4.50;;;;;;;;;;5093571;28;20030;-70
2023/08/05 12:46:19;;;;;;;10.50;4.68;;;;;;;;;;5075992;28;20043;-70
2023/08/05 12:48:45;;;;;;;8.68;4.72;;;;;;;;;;5075851;28;20114;-70
2023/08/05 12:51:12;;;;;;;14.10;4.80;;;;;;;;;;5094089;28;20039;-70
2023/08/05 12:53:38;;;;;;;11.02;5.78;;;;;;;;;;5093841;28;20028;-70
2023/08/05 12:56:04;;;;;;;8.82;5.75;;;;;;;;;;5075653;28;20402;-70
2023/08/05 12:58:30;;;;;;;14.63;6.30;;;;;;;;;;5076047;28;20032;-70
2023/08/05 13:00:56;;;;;;;13.48;7.13;;;;;;;;;;5093624;28;20032;-69
2023/08/05 13:03:23;;;;;;;13.80;6.45;;;;;;;;;;5058977;28;20059;-70
2023/08/05 13:05:49;;;;;;;10.40;7.10;;;;;;;;;;5075355;28;20063;-70
2023/08/05 13:08:15;;;;;;;11.15;7.13;;;;;;;;;;5075677;28;20104;-69
2023/08/05 13:10:43;;;;;;;14.43;7.57;;;;;;;;;;5075113;28;20051;-69
2023/08/05 13:13:10;;;;;;;15.35;7.80;;;;;;;;;;5058954;28;20042;-69
2023/08/05 13:15:36;;;;;;;14.20;7.22;;;;;;;;;;5075380;28;20040;-70
2023/08/05 13:18:02;;;;;;;16.67;7.65;;;;;;;;;;5093412;28;20042;-70
2023/08/05 13:20:30;;;;;;;12.43;7.00;;;;;;;;;;5093164;28;20024;-70
2023/08/05 13:22:56;;;;;;;13.98;6.85;;;;;;;;;;5074428;28;20044;-70
2023/08/05 13:25:22;;;;;;;12.82;7.07;;;;;;;;;;5093217;28;20082;-70
2023/08/05 13:27:49;;;;;;;10.57;6.65;;;;;;;;;;5093378;28;20024;-70
2023/08/05 13:30:15;;;;;;;12.20;6.60;;;;;;;;;;5092877;28;20075;-70
2023/08/05 13:32:42;;;;;;;11.32;6.13;;;;;;;;;;5093164;28;20036;-70
2023/08/05 13:35:08;;;;;;;14.20;6.72;;;;;;;;;;5074837;28;20032;-69
2023/08/05 13:37:34;;;;;;;16.63;6.68;;;;;;;;;;5092803;28;20131;-70
2023/08/05 13:40:00;;;;;;;12.77;6.95;;;;;;;;;;5092728;28;20118;-69
2023/08/05 13:42:27;;;;;;;14.80;7.10;;;;;;;;;;5093192;28;20508;-69
2023/08/05 13:44:53;;;;;;;11.38;7.80;;;;;;;;;;5092686;28;20024;-69
2023/08/05 13:47:19;;;;;;;12.77;8.73;;;;;;;;;;5057860;28;20032;-69
2023/08/05 13:49:45;;;;;;;15.85;9.10;;;;;;;;;;5074184;28;20673;-69
2023/08/05 13:52:11;;;;;;;20.15;8.32;;;;;;;;;;5074780;28;20020;-69
2023/08/05 13:54:37;;;;;;;13.32;8.15;;;;;;;;;;5093182;28;20085;-70
2023/08/05 13:57:03;;;;;;;14.55;7.97;;;;;;;;;;5074918;28;20155;-69
2023/08/05 13:59:30;;;;;;;14.40;8.15;;;;;;;;;;5074718;28;20036;-69
2023/08/05 14:01:56;;;;;;;16.70;8.55;;;;;;;;;;5092243;28;20032;-69
2023/08/05 14:04:22;;;;;;;14.65;8.32;;;;;;;;;;5091942;28;20054;-69
2023/08/05 14:06:48;;;;;;;14.07;7.93;;;;;;;;;;5091662;28;20126;-70
2023/08/05 14:09:14;;;;;;;12.02;7.47;;;;;;;;;;5092322;28;20085;-70
2023/08/05 14:11:40;;;;;;;13.95;8.05;;;;;;;;;;5092132;28;20031;-69
2023/08/05 14:14:06;;;;;;;11.63;7.40;;;;;;;;;;5074322;28;20060;-69
2023/08/05 14:16:35;;;;;;;13.13;6.95;;;;;;;;;;5074072;28;20162;-69
2023/08/05 14:19:01;;;;;;;13.18;6.75;;;;;;;;;;5092118;28;20473;-69
2023/08/05 14:21:28;;;;;;;12.40;6.97;;;;;;;;;;5073825;28;20120;-69
2023/08/05 14:23:54;;;;;;;7.90;6.07;;;;;;;;;;5092213;28;20055;-71
2023/08/05 14:26:20;;;;;;;12.13;6.65;;;;;;;;;;5092094;28;20397;-69